Terminal Aerodrome Forecast
Issued by NWS

Home | Current Version | Previous Version | Text Only | Print | Product List | Glossary On
Versions: 1 2 3 4 5 6 7 8 9 10 11 12 13
000
FTUS43 KMPX 240524
TAFRNH
TAF
KRNH 240524Z 2406/2506 10005KT P6SM SCT050 OVC090
     FM241400 13008KT 6SM -RA BR OVC040
     FM241700 13008KT 4SM -RA BR OVC025
     FM250000 09006KT 5SM -DZ BR OVC015=

USA.gov is the U.S. government's official web portal to all federal, state and local government web resources and services.